Pagina principale
METAR-TAF:

METAR-TAF

Aeroporti :

Aeroporto Internazionale di Hato

Curaçao, Antille olandesi

latitudine: 12-12N, longitudine: 068-58W, altezza: 9 m

Osservazione

Il bollettino è stato emesso 23 minuti fa, alle 06:00 UTC
Vento 10 kt da est/sud-est
Temperature 28°C
Umidità 79%
Pressione 1011 hPa
Visibilità 10 km o più
Nubi sparse ad un'altezza di 2100 ft

METAR: TNCC 160600Z AUTO 11010KT 9999 SCT021 28/24 Q1011

Ora: 02:23 (06:23 UTC)

Previsione

Il bollettino è stato emesso 2 ore e 23 minuti fa, alle 04:00 UTC
Previsione valida dal 16 alle 06 UTC al 17 alle 06 UTC
Vento 8 kt da est/sud-est
Visibilità 10 km o più
Nubi sparse ad un'altezza di 1800 ft
Probabilità 30% :
Temporaneamente
dal 16 alle 08 UTC al 16 alle 14 UTC
Visibilità: 7000 m
Nuvoloso ad un'altezza di 1500 ft
rovesci di pioggia

TAF: TNCC 160400Z 1606/1706 11008KT 9999 SCT018 PROB30 TEMPO 1608/1614 7000 SHRA BKN015

Osservazioni e previsioni meteorologiche di più di 4000 aeroporti (messaggi METAR e TAF).

Le stazioni disponibili sono rappresentate dai dischi gialli e rossi sulla carta.

Puntare il mouse per vedere il nome della stazione.

Clicca sopra per visualizzare le osservazioni e previsioni meteorologiche.

Per cambiare la mappa : fare clic sui pulsanti verdi con una croce nera per ingrandire, il pulsante verde con un trattino per diminuire, o sulla freccia verde per le mappe adiacenti.


METAR-TAF: